createdAt,value
2019-03-29T00:01:10.874Z,52.52
2019-03-29T00:03:43.461Z,54.13
2019-03-29T00:06:16.136Z,56.84
2019-03-29T00:08:48.705Z,58.79
2019-03-29T00:11:21.185Z,60.35
2019-03-29T00:13:53.763Z,62.53
2019-03-29T00:16:26.345Z,63.45
2019-03-29T00:18:58.912Z,53.92
2019-03-29T00:21:31.494Z,54.49
2019-03-29T00:24:06.887Z,57.23
2019-03-29T00:26:38.183Z,59.42
2019-03-29T00:29:10.758Z,61.07
2019-03-29T00:31:43.234Z,64.40
2019-03-29T00:34:16.035Z,55.80
2019-03-29T00:36:50.331Z,52.85
2019-03-29T00:39:23.013Z,54.75
2019-03-29T00:41:55.592Z,57.38
2019-03-29T00:44:28.268Z,59.76
2019-03-29T00:47:00.741Z,60.83
2019-03-29T00:49:33.426Z,63.52
2019-03-29T00:52:05.896Z,58.90
2019-03-29T00:54:51.470Z,54.32
2019-03-29T00:57:30.908Z,56.62
2019-03-29T01:00:13.333Z,58.20
2019-03-29T01:02:55.931Z,61.40
2019-03-29T01:05:38.546Z,64.41
2019-03-29T01:08:21.055Z,56.05
2019-03-29T01:11:05.663Z,52.70
2019-03-29T01:13:44.538Z,54.93
2019-03-29T01:16:17.114Z,57.26
2019-03-29T01:18:49.745Z,59.00
2019-03-29T01:21:22.372Z,61.68
2019-03-29T01:23:54.500Z,62.00
2019-03-29T01:26:27.171Z,62.95
2019-03-29T01:29:01.072Z,54.54
2019-03-29T01:31:33.916Z,52.07
2019-03-29T01:34:06.481Z,54.72
2019-03-29T01:36:39.058Z,56.81
2019-03-29T01:39:11.635Z,58.14
2019-03-29T01:41:44.621Z,59.26
2019-03-29T01:44:17.201Z,61.25
2019-03-29T01:46:49.773Z,61.59
2019-03-29T01:49:22.351Z,65.86
2019-03-29T01:51:54.926Z,58.15
2019-03-29T01:54:27.402Z,53.65
2019-03-29T01:57:00.082Z,55.58
2019-03-29T01:59:32.670Z,57.96
2019-03-29T02:02:05.234Z,59.45
2019-03-29T02:04:37.814Z,61.69
2019-03-29T02:07:11.384Z,62.86
2019-03-29T02:09:44.603Z,60.96
2019-03-29T02:12:17.285Z,51.33
2019-03-29T02:14:50.068Z,52.45
2019-03-29T02:17:22.951Z,54.05
2019-03-29T02:19:55.528Z,56.14
2019-03-29T02:22:28.101Z,56.95
2019-03-29T02:25:00.779Z,58.74
2019-03-29T02:27:33.454Z,59.69
2019-03-29T02:30:08.420Z,61.05
2019-03-29T02:32:40.977Z,61.14
2019-03-29T02:35:13.443Z,61.26
2019-03-29T02:37:46.121Z,62.26
2019-03-29T02:40:18.598Z,63.46
2019-03-29T02:42:51.224Z,52.82
2019-03-29T02:45:23.760Z,51.53
2019-03-29T02:47:55.938Z,53.71
2019-03-29T02:50:28.593Z,55.56
2019-03-29T02:53:01.202Z,55.97
2019-03-29T02:55:33.747Z,57.36
2019-03-29T02:58:06.037Z,59.24
2019-03-29T03:00:39.616Z,59.96
2019-03-29T03:03:11.804Z,60.62
2019-03-29T03:05:44.365Z,61.95
2019-03-29T03:08:16.937Z,62.30
2019-03-29T03:10:49.062Z,64.44
2019-03-29T03:13:21.784Z,55.07
2019-03-29T03:16:00.709Z,53.24
2019-03-29T03:18:39.534Z,55.06
2019-03-29T03:21:18.255Z,56.68
2019-03-29T03:23:57.234Z,57.92
2019-03-29T03:26:35.901Z,58.62
2019-03-29T03:29:14.277Z,59.21
2019-03-29T03:31:52.610Z,60.55
2019-03-29T03:34:31.326Z,61.72
2019-03-29T03:37:09.605Z,64.53
2019-03-29T03:39:48.282Z,58.38
2019-03-29T03:42:30.885Z,52.75
2019-03-29T03:45:10.581Z,54.07
2019-03-29T03:47:49.121Z,55.63
2019-03-29T03:50:39.950Z,56.95
2019-03-29T03:53:19.204Z,58.14
2019-03-29T03:55:58.108Z,59.88
2019-03-29T03:58:37.438Z,60.51
2019-03-29T04:01:16.369Z,61.37
2019-03-29T04:03:54.898Z,63.75
2019-03-29T04:06:39.956Z,53.86
2019-03-29T04:09:18.579Z,50.94
2019-03-29T04:11:57.120Z,52.76
2019-03-29T04:14:35.913Z,54.26
2019-03-29T04:17:21.084Z,55.54
2019-03-29T04:19:59.704Z,57.59
2019-03-29T04:22:32.391Z,58.90
2019-03-29T04:25:07.100Z,59.57
2019-03-29T04:27:39.677Z,60.84
2019-03-29T04:30:12.260Z,61.20
2019-03-29T04:32:45.465Z,62.06
2019-03-29T04:35:17.931Z,65.24
2019-03-29T04:37:50.506Z,55.93
2019-03-29T04:40:22.977Z,50.72
2019-03-29T04:42:55.560Z,52.95
2019-03-29T04:45:28.535Z,54.83
2019-03-29T04:48:01.130Z,56.83
2019-03-29T04:50:35.039Z,58.17
2019-03-29T04:53:08.427Z,59.12
2019-03-29T04:55:40.999Z,60.38
2019-03-29T04:58:13.573Z,61.51
2019-03-29T05:00:46.053Z,64.97
2019-03-29T05:03:18.479Z,55.87
2019-03-29T05:05:50.999Z,52.02
2019-03-29T05:08:23.585Z,54.39
2019-03-29T05:10:55.720Z,56.15
2019-03-29T05:13:28.319Z,57.79
2019-03-29T05:16:00.895Z,58.81
2019-03-29T05:18:33.478Z,59.78
2019-03-29T05:21:06.047Z,62.57
2019-03-29T05:23:38.629Z,62.85
2019-03-29T05:26:11.712Z,53.06
2019-03-29T05:28:44.294Z,52.17
2019-03-29T05:31:17.072Z,54.17
2019-03-29T05:33:49.646Z,56.29
2019-03-29T05:36:22.227Z,57.96
2019-03-29T05:38:54.806Z,59.17
2019-03-29T05:41:28.403Z,61.01
2019-03-29T05:44:00.980Z,61.64
2019-03-29T05:46:33.758Z,65.60
2019-03-29T05:49:06.336Z,57.37
2019-03-29T05:51:38.907Z,52.60
2019-03-29T05:54:11.590Z,54.70
2019-03-29T05:56:44.225Z,56.44
2019-03-29T05:59:16.878Z,58.30
2019-03-29T06:01:49.422Z,59.75
2019-03-29T06:04:22.003Z,60.82
2019-03-29T06:06:54.580Z,64.60
2019-03-29T06:09:27.152Z,57.45
2019-03-29T06:11:59.628Z,53.70
2019-03-29T06:14:32.205Z,55.25
2019-03-29T06:17:04.341Z,57.07
2019-03-29T06:19:36.543Z,58.37
2019-03-29T06:22:09.218Z,59.59
2019-03-29T06:24:41.793Z,60.95
2019-03-29T06:27:14.370Z,61.60
2019-03-29T06:29:46.941Z,62.30
2019-03-29T06:32:19.563Z,52.06
2019-03-29T06:34:51.759Z,52.62
2019-03-29T06:37:25.035Z,54.93
2019-03-29T06:39:59.609Z,55.78
2019-03-29T06:42:32.289Z,57.23
2019-03-29T06:45:05.396Z,58.49
2019-03-29T06:47:38.989Z,59.25
2019-03-29T06:50:13.974Z,59.79
2019-03-29T06:52:45.769Z,59.89
2019-03-29T06:55:18.340Z,60.53
2019-03-29T06:57:50.824Z,60.41
2019-03-29T07:00:23.499Z,59.77
2019-03-29T07:02:55.973Z,60.47
2019-03-29T07:05:28.548Z,60.71
2019-03-29T07:08:01.126Z,61.30
2019-03-29T07:10:33.704Z,62.27
2019-03-29T07:13:06.047Z,62.08
2019-03-29T07:15:38.654Z,53.26
2019-03-29T07:18:11.488Z,50.93
2019-03-29T07:20:44.112Z,52.59
2019-03-29T07:23:16.689Z,53.47
2019-03-29T07:25:49.778Z,54.40
2019-03-29T07:28:22.365Z,54.07
2019-03-29T07:30:54.933Z,54.93
2019-03-29T07:33:27.923Z,55.55
2019-03-29T07:36:00.902Z,55.68
2019-03-29T07:38:33.377Z,56.74
2019-03-29T07:41:06.466Z,57.21
2019-03-29T07:43:39.041Z,58.14
2019-03-29T07:46:12.649Z,58.54
2019-03-29T07:48:46.246Z,59.10
2019-03-29T07:51:18.820Z,58.95
2019-03-29T07:53:51.412Z,58.85
2019-03-29T07:56:23.976Z,59.49
2019-03-29T07:58:56.454Z,60.04
2019-03-29T08:01:32.287Z,60.89
2019-03-29T08:04:03.144Z,60.86
2019-03-29T08:06:35.714Z,60.62
2019-03-29T08:09:21.716Z,60.63
2019-03-29T08:11:46.590Z,61.12
2019-03-29T08:14:17.544Z,60.70
2019-03-29T08:16:50.111Z,60.42
2019-03-29T08:19:22.613Z,61.07
2019-03-29T08:21:57.701Z,61.42
2019-03-29T08:24:29.281Z,61.10
2019-03-29T08:27:01.962Z,61.15
2019-03-29T08:29:35.315Z,61.52
2019-03-29T08:32:07.933Z,61.26
2019-03-29T08:34:40.516Z,61.13
2019-03-29T08:37:12.708Z,61.48
2019-03-29T08:39:45.354Z,61.33
2019-03-29T08:42:19.058Z,61.00
2019-03-29T08:44:51.529Z,60.24
2019-03-29T08:47:24.215Z,59.88
2019-03-29T08:49:58.317Z,60.61
2019-03-29T08:52:30.900Z,60.28
2019-03-29T08:55:03.583Z,60.45
2019-03-29T08:57:36.152Z,60.31
2019-03-29T09:00:10.063Z,60.15
2019-03-29T09:02:42.742Z,59.63
2019-03-29T09:05:15.324Z,59.97
2019-03-29T09:07:48.202Z,60.21
2019-03-29T09:10:27.359Z,59.78
2019-03-29T09:12:59.756Z,58.80
2019-03-29T09:15:32.282Z,58.91
2019-03-29T09:18:05.066Z,59.50
2019-03-29T09:20:37.540Z,59.05
2019-03-29T09:23:10.547Z,59.31
2019-03-29T09:25:43.413Z,59.53
2019-03-29T09:28:15.984Z,59.25
2019-03-29T09:30:48.568Z,59.80
2019-03-29T09:33:21.138Z,59.70
2019-03-29T09:35:53.820Z,59.69
2019-03-29T09:38:26.501Z,59.14
2019-03-29T09:40:59.436Z,60.08
2019-03-29T09:43:32.678Z,59.69
2019-03-29T09:46:05.250Z,59.49
2019-03-29T09:48:37.833Z,59.51
2019-03-29T09:51:10.914Z,59.87
2019-03-29T09:53:43.492Z,60.13
2019-03-29T09:56:15.953Z,60.26
2019-03-29T09:58:48.544Z,60.06
2019-03-29T10:01:21.247Z,60.60
2019-03-29T10:03:53.814Z,60.76
2019-03-29T10:06:26.487Z,60.82
2019-03-29T10:08:58.678Z,60.88
2019-03-29T10:11:31.224Z,60.88
2019-03-29T10:14:04.003Z,61.08
2019-03-29T10:16:37.092Z,61.31
2019-03-29T10:19:09.976Z,61.16
2019-03-29T10:21:44.093Z,61.30
2019-03-29T10:24:16.669Z,61.48
2019-03-29T10:26:49.262Z,61.12
2019-03-29T10:29:21.920Z,61.44
2019-03-29T10:31:54.500Z,61.29
2019-03-29T10:34:27.075Z,60.88
2019-03-29T10:36:59.652Z,60.62
2019-03-29T10:39:35.419Z,60.82
2019-03-29T10:42:06.750Z,60.10
2019-03-29T10:44:39.328Z,59.59
2019-03-29T10:47:11.910Z,59.46
2019-03-29T10:49:44.480Z,59.91
2019-03-29T10:52:17.363Z,58.95
2019-03-29T10:54:50.196Z,59.23
2019-03-29T10:57:23.233Z,58.36
2019-03-29T10:59:55.914Z,58.52
2019-03-29T11:02:28.388Z,58.16
2019-03-29T11:05:00.911Z,58.40
2019-03-29T11:07:34.621Z,58.06
2019-03-29T11:10:08.681Z,57.98
2019-03-29T11:12:41.325Z,58.16
2019-03-29T11:15:13.934Z,57.87
2019-03-29T11:17:46.407Z,57.24
2019-03-29T11:20:18.992Z,58.18
2019-03-29T11:22:51.563Z,57.70
2019-03-29T11:25:23.894Z,57.49
2019-03-29T11:27:56.411Z,57.59
2019-03-29T11:30:41.492Z,57.87
2019-03-29T11:33:02.919Z,57.64
2019-03-29T11:35:35.671Z,57.30
2019-03-29T11:38:09.339Z,57.26
2019-03-29T11:40:41.954Z,57.36
2019-03-29T11:43:25.927Z,57.48
2019-03-29T11:45:48.752Z,57.82
2019-03-29T11:48:21.324Z,57.45
2019-03-29T11:50:53.723Z,57.41
2019-03-29T11:53:27.147Z,57.29
2019-03-29T11:55:59.766Z,57.65
2019-03-29T11:58:33.583Z,57.49
2019-03-29T12:01:06.164Z,57.70
2019-03-29T12:03:38.725Z,57.11
2019-03-29T12:06:11.303Z,56.88
2019-03-29T12:08:43.781Z,56.96
2019-03-29T12:11:16.356Z,56.20
2019-03-29T12:13:48.928Z,56.17
2019-03-29T12:16:21.927Z,56.03
2019-03-29T12:18:54.488Z,55.50
2019-03-29T12:21:27.073Z,55.23
2019-03-29T12:23:59.752Z,55.85
2019-03-29T12:26:32.633Z,55.11
2019-03-29T12:29:05.265Z,54.31
2019-03-29T12:31:37.998Z,53.37
2019-03-29T12:34:10.567Z,52.74
2019-03-29T12:36:45.938Z,53.10
2019-03-29T12:39:17.768Z,52.55
2019-03-29T12:41:50.351Z,51.80
2019-03-29T12:44:22.922Z,51.67
2019-03-29T12:46:55.509Z,51.96
2019-03-29T12:49:28.182Z,51.39
2019-03-29T12:52:00.755Z,51.11
2019-03-29T12:54:33.439Z,50.47
2019-03-29T12:57:06.935Z,50.64
2019-03-29T12:59:39.489Z,50.68
2019-03-29T13:02:12.803Z,50.12
2019-03-29T13:04:47.040Z,50.28
2019-03-29T13:07:19.595Z,49.59
2019-03-29T13:09:52.374Z,49.24
2019-03-29T13:12:25.060Z,49.12
2019-03-29T13:14:57.192Z,48.74
2019-03-29T13:17:29.798Z,49.57
2019-03-29T13:20:02.273Z,49.09
2019-03-29T13:22:35.023Z,49.58
2019-03-29T13:25:08.750Z,49.68
2019-03-29T13:27:41.359Z,50.11
2019-03-29T13:30:17.106Z,50.31
2019-03-29T13:32:49.486Z,51.11
2019-03-29T13:35:21.954Z,51.42
2019-03-29T13:37:54.536Z,52.21
2019-03-29T13:40:27.011Z,52.45
2019-03-29T13:43:01.022Z,52.93
2019-03-29T13:45:33.599Z,53.37
2019-03-29T13:48:06.277Z,54.17
2019-03-29T13:50:38.746Z,54.34
2019-03-29T13:53:11.322Z,54.45
2019-03-29T13:55:43.905Z,54.89
2019-03-29T13:58:16.489Z,55.08
2019-03-29T14:00:49.162Z,55.53
2019-03-29T14:03:21.738Z,56.00
2019-03-29T14:05:53.863Z,55.88
2019-03-29T14:08:28.529Z,56.08
2019-03-29T14:11:01.107Z,56.32
2019-03-29T14:13:33.682Z,56.50
2019-03-29T14:16:06.258Z,56.75
2019-03-29T14:18:38.836Z,57.08
2019-03-29T14:21:11.311Z,57.58
2019-03-29T14:23:43.889Z,57.69
2019-03-29T14:26:16.331Z,58.12
2019-03-29T14:28:49.347Z,58.52
2019-03-29T14:31:21.920Z,58.82
2019-03-29T14:33:56.041Z,59.12
2019-03-29T14:36:28.168Z,59.23
2019-03-29T14:39:00.780Z,59.59
2019-03-29T14:41:34.943Z,59.78
2019-03-29T14:44:07.575Z,59.79
2019-03-29T14:46:40.150Z,60.00
2019-03-29T14:49:12.726Z,60.04
2019-03-29T14:51:45.297Z,59.98
2019-03-29T14:54:19.102Z,60.04
2019-03-29T14:56:51.683Z,60.29
2019-03-29T14:59:23.870Z,59.95
2019-03-29T15:01:56.420Z,60.25
2019-03-29T15:04:29.006Z,60.39
2019-03-29T15:07:01.582Z,60.22
2019-03-29T15:09:34.261Z,59.82
2019-03-29T15:12:07.196Z,60.30
2019-03-29T15:14:39.927Z,60.16
2019-03-29T15:17:12.060Z,60.06
2019-03-29T15:19:44.726Z,59.93
2019-03-29T15:22:17.246Z,59.88
2019-03-29T15:24:49.832Z,60.09
2019-03-29T15:27:22.406Z,60.37
2019-03-29T15:29:54.978Z,60.54
2019-03-29T15:32:27.114Z,60.71
2019-03-29T15:34:59.721Z,60.95
2019-03-29T15:37:32.194Z,61.12
2019-03-29T15:40:05.793Z,61.30
2019-03-29T15:42:38.370Z,61.50
2019-03-29T15:45:20.249Z,61.51
2019-03-29T15:47:45.851Z,61.56
2019-03-29T15:50:18.455Z,61.73
2019-03-29T15:52:51.033Z,61.87
2019-03-29T15:55:23.605Z,61.86
2019-03-29T15:57:56.186Z,62.42
2019-03-29T16:00:28.767Z,62.51
2019-03-29T16:03:01.340Z,51.23
2019-03-29T16:05:33.920Z,52.06
2019-03-29T16:08:06.492Z,53.30
2019-03-29T16:10:41.160Z,54.58
2019-03-29T16:13:13.183Z,55.48
2019-03-29T16:15:45.376Z,56.01
2019-03-29T16:18:17.924Z,56.52
2019-03-29T16:20:50.498Z,57.25
2019-03-29T16:23:22.977Z,57.81
2019-03-29T16:25:55.553Z,57.99
2019-03-29T16:28:28.130Z,58.47
2019-03-29T16:31:00.716Z,58.79
2019-03-29T16:33:32.836Z,59.11
2019-03-29T16:36:05.552Z,59.26
2019-03-29T16:38:38.214Z,59.50
2019-03-29T16:41:10.811Z,60.15
2019-03-29T16:43:43.386Z,60.34
2019-03-29T16:46:15.967Z,60.64
2019-03-29T16:48:48.538Z,61.39
2019-03-29T16:51:21.111Z,61.41
2019-03-29T16:53:53.693Z,61.70
2019-03-29T16:56:26.269Z,62.03
2019-03-29T16:58:59.455Z,62.62
2019-03-29T17:01:32.038Z,61.49
2019-03-29T17:04:04.613Z,51.83
2019-03-29T17:06:37.189Z,49.79
2019-03-29T17:09:10.539Z,51.34
2019-03-29T17:11:43.881Z,53.18
2019-03-29T17:14:16.354Z,54.70
2019-03-29T17:16:52.807Z,55.58
2019-03-29T17:19:24.578Z,56.26
2019-03-29T17:21:57.153Z,57.10
2019-03-29T17:24:29.732Z,58.14
2019-03-29T17:27:02.436Z,59.10
2019-03-29T17:29:34.990Z,59.12
2019-03-29T17:32:07.561Z,60.07
2019-03-29T17:34:41.166Z,60.61
2019-03-29T17:37:14.254Z,60.96
2019-03-29T17:39:47.164Z,61.76
2019-03-29T17:42:19.600Z,61.80
2019-03-29T17:44:51.732Z,63.14
2019-03-29T17:47:23.905Z,60.14
2019-03-29T17:49:56.423Z,53.65
2019-03-29T17:52:28.998Z,54.50
2019-03-29T17:55:01.484Z,55.55
2019-03-29T17:57:34.213Z,57.14
2019-03-29T18:00:10.006Z,57.65
2019-03-29T18:02:42.586Z,58.51
2019-03-29T18:05:15.157Z,59.15
2019-03-29T18:07:49.163Z,60.07
2019-03-29T18:10:21.948Z,60.68
2019-03-29T18:12:54.581Z,60.94
2019-03-29T18:15:27.103Z,61.59
2019-03-29T18:17:59.782Z,61.69
2019-03-29T18:20:32.563Z,62.19
2019-03-29T18:23:05.139Z,61.61
2019-03-29T18:25:37.817Z,52.03
2019-03-29T18:28:10.497Z,52.12
2019-03-29T18:30:45.020Z,53.62
2019-03-29T18:33:17.602Z,55.11
2019-03-29T18:35:50.182Z,56.26
2019-03-29T18:38:22.856Z,56.90
2019-03-29T18:40:54.991Z,57.84
2019-03-29T18:43:27.648Z,58.89
2019-03-29T18:46:00.173Z,59.39
2019-03-29T18:48:32.750Z,60.12
2019-03-29T18:51:06.658Z,60.58
2019-03-29T18:53:38.966Z,61.16
2019-03-29T18:56:11.501Z,61.76
2019-03-29T18:58:45.105Z,62.86
2019-03-29T19:01:17.683Z,62.10
2019-03-29T19:03:50.260Z,52.11
2019-03-29T19:06:22.834Z,51.03
2019-03-29T19:08:55.415Z,53.14
2019-03-29T19:11:27.986Z,54.88
2019-03-29T19:14:00.559Z,55.76
2019-03-29T19:16:33.239Z,56.94
2019-03-29T19:19:10.170Z,57.44
2019-03-29T19:21:39.815Z,58.48
2019-03-29T19:24:12.407Z,59.23
2019-03-29T19:26:44.983Z,60.29
2019-03-29T19:29:17.171Z,60.42
2019-03-29T19:31:49.777Z,61.02
2019-03-29T19:34:23.024Z,61.80
2019-03-29T19:36:55.596Z,61.91
2019-03-29T19:39:28.168Z,62.88
2019-03-29T19:42:00.749Z,53.50
2019-03-29T19:44:34.556Z,50.09
2019-03-29T19:47:13.322Z,51.81
2019-03-29T19:49:40.938Z,53.45
2019-03-29T19:52:13.411Z,54.60
2019-03-29T19:54:45.983Z,56.03
2019-03-29T19:57:18.621Z,57.51
2019-03-29T19:59:50.771Z,58.11
2019-03-29T20:02:23.309Z,58.66
2019-03-29T20:04:55.885Z,59.42
2019-03-29T20:07:28.462Z,60.02
2019-03-29T20:10:01.041Z,61.00
2019-03-29T20:12:33.513Z,61.52
2019-03-29T20:15:08.724Z,61.76
2019-03-29T20:17:41.467Z,62.91
2019-03-29T20:20:20.013Z,60.96
2019-03-29T20:22:54.604Z,51.27
2019-03-29T20:25:27.687Z,50.86
2019-03-29T20:28:00.787Z,52.50
2019-03-29T20:30:33.434Z,54.19
2019-03-29T20:33:06.112Z,55.30
2019-03-29T20:35:38.407Z,56.49
2019-03-29T20:38:10.952Z,57.41
2019-03-29T20:40:43.530Z,58.74
2019-03-29T20:43:16.004Z,59.54
2019-03-29T20:45:48.193Z,60.33
2019-03-29T20:48:20.747Z,61.59
2019-03-29T20:50:53.325Z,61.17
2019-03-29T20:53:26.238Z,64.57
2019-03-29T20:55:58.887Z,59.63
2019-03-29T20:58:31.365Z,53.11
2019-03-29T21:01:03.936Z,54.35
2019-03-29T21:03:36.516Z,55.90
2019-03-29T21:06:09.092Z,57.34
2019-03-29T21:08:41.663Z,57.54
2019-03-29T21:11:14.347Z,58.99
2019-03-29T21:13:46.918Z,59.65
2019-03-29T21:16:20.841Z,61.31
2019-03-29T21:18:53.407Z,61.44
2019-03-29T21:21:26.082Z,62.98
2019-03-29T21:23:58.562Z,62.52
2019-03-29T21:26:31.140Z,52.99
2019-03-29T21:29:03.715Z,49.62
2019-03-29T21:31:36.343Z,52.36
2019-03-29T21:34:09.374Z,53.84
2019-03-29T21:36:41.956Z,55.20
2019-03-29T21:39:14.946Z,56.31
2019-03-29T21:41:47.523Z,57.20
2019-03-29T21:44:20.760Z,58.03
2019-03-29T21:46:53.287Z,59.44
2019-03-29T21:49:25.865Z,59.47
2019-03-29T21:51:58.441Z,60.52
2019-03-29T21:54:30.573Z,61.40
2019-03-29T21:57:02.745Z,62.08
2019-03-29T21:59:35.247Z,64.01
2019-03-29T22:02:07.923Z,54.38
2019-03-29T22:04:40.500Z,51.19
2019-03-29T22:07:13.086Z,52.86
2019-03-29T22:09:45.662Z,54.53
2019-03-29T22:12:18.234Z,55.94
2019-03-29T22:14:50.365Z,57.31
2019-03-29T22:17:22.977Z,57.90
2019-03-29T22:19:55.605Z,59.01
2019-03-29T22:22:28.289Z,60.20
2019-03-29T22:25:00.810Z,60.40
2019-03-29T22:27:33.386Z,64.47
2019-03-29T22:30:12.005Z,58.93
2019-03-29T22:32:44.497Z,53.42
2019-03-29T22:35:17.056Z,54.69
2019-03-29T22:37:49.634Z,55.96
2019-03-29T22:40:22.214Z,57.23
2019-03-29T22:42:54.418Z,58.39
2019-03-29T22:45:26.983Z,59.46
2019-03-29T22:47:59.529Z,60.43
2019-03-29T22:50:32.004Z,61.18
2019-03-29T22:53:04.583Z,61.93
2019-03-29T22:55:37.058Z,65.19
2019-03-29T22:58:09.634Z,55.83
2019-03-29T23:00:49.480Z,51.18
2019-03-29T23:03:22.773Z,53.24
2019-03-29T23:05:55.350Z,55.06
2019-03-29T23:08:27.918Z,56.64
2019-03-29T23:11:00.398Z,57.92
2019-03-29T23:13:34.514Z,59.11
2019-03-29T23:16:07.090Z,60.46
2019-03-29T23:18:40.384Z,61.37
2019-03-29T23:21:12.961Z,62.46
2019-03-29T23:23:45.374Z,65.68
2019-03-29T23:26:17.909Z,55.63
2019-03-29T23:28:50.489Z,51.53
2019-03-29T23:31:22.617Z,53.77
2019-03-29T23:33:55.229Z,55.82
2019-03-29T23:36:27.586Z,57.47
2019-03-29T23:39:00.179Z,58.70
2019-03-29T23:41:32.857Z,59.30
2019-03-29T23:44:05.435Z,60.82
2019-03-29T23:46:37.911Z,62.03
2019-03-29T23:49:20.920Z,66.22
2019-03-29T23:51:44.601Z,56.95
2019-03-29T23:54:16.794Z,52.23
2019-03-29T23:56:49.447Z,54.24
2019-03-29T23:59:22.122Z,56.44
